sensor_id;sensor_type;location;lat;lon;timestamp;P1;durP1;ratioP1;P2;durP2;ratioP2
23745;SDS011;12053;48.878;9.632;2023-09-19T00:01:42;2.60;;;1.30;;
23745;SDS011;12053;48.878;9.632;2023-09-19T00:04:12;1.88;;;1.00;;
23745;SDS011;12053;48.878;9.632;2023-09-19T00:06:41;1.20;;;1.10;;
23745;SDS011;12053;48.878;9.632;2023-09-19T00:09:09;1.55;;;1.15;;
23745;SDS011;12053;48.878;9.632;2023-09-19T00:11:37;2.75;;;1.50;;
23745;SDS011;12053;48.878;9.632;2023-09-19T00:14:04;1.88;;;1.30;;
23745;SDS011;12053;48.878;9.632;2023-09-19T00:16:34;1.85;;;1.23;;
23745;SDS011;12053;48.878;9.632;2023-09-19T00:19:02;4.13;;;1.40;;
23745;SDS011;12053;48.878;9.632;2023-09-19T00:21:31;3.15;;;1.40;;
23745;SDS011;12053;48.878;9.632;2023-09-19T00:23:58;2.60;;;1.40;;
23745;SDS011;12053;48.878;9.632;2023-09-19T00:26:26;3.28;;;1.50;;
23745;SDS011;12053;48.878;9.632;2023-09-19T00:28:56;1.30;;;1.15;;
23745;SDS011;12053;48.878;9.632;2023-09-19T00:31:23;2.00;;;1.08;;
23745;SDS011;12053;48.878;9.632;2023-09-19T00:33:51;2.75;;;1.38;;
23745;SDS011;12053;48.878;9.632;2023-09-19T00:36:19;2.60;;;1.27;;
23745;SDS011;12053;48.878;9.632;2023-09-19T00:38:46;1.50;;;1.10;;
23745;SDS011;12053;48.878;9.632;2023-09-19T00:41:14;3.08;;;1.20;;
23745;SDS011;12053;48.878;9.632;2023-09-19T00:43:41;1.65;;;1.00;;
23745;SDS011;12053;48.878;9.632;2023-09-19T00:46:09;3.85;;;1.50;;
23745;SDS011;12053;48.878;9.632;2023-09-19T00:48:40;4.70;;;1.25;;
23745;SDS011;12053;48.878;9.632;2023-09-19T00:51:10;2.22;;;1.17;;
23745;SDS011;12053;48.878;9.632;2023-09-19T00:53:37;2.78;;;1.38;;
23745;SDS011;12053;48.878;9.632;2023-09-19T00:56:05;2.25;;;1.23;;
23745;SDS011;12053;48.878;9.632;2023-09-19T00:58:33;2.03;;;1.00;;
23745;SDS011;12053;48.878;9.632;2023-09-19T01:01:01;3.60;;;1.13;;
23745;SDS011;12053;48.878;9.632;2023-09-19T01:03:37;3.15;;;1.40;;
23745;SDS011;12053;48.878;9.632;2023-09-19T01:06:06;1.67;;;1.33;;
23745;SDS011;12053;48.878;9.632;2023-09-19T01:08:35;2.53;;;1.30;;
23745;SDS011;12053;48.878;9.632;2023-09-19T01:11:11;2.28;;;1.33;;
23745;SDS011;12053;48.878;9.632;2023-09-19T01:16:23;2.15;;;1.17;;
23745;SDS011;12053;48.878;9.632;2023-09-19T01:21:42;1.38;;;1.17;;
23745;SDS011;12053;48.878;9.632;2023-09-19T01:29:44;1.80;;;1.10;;
23745;SDS011;12053;48.878;9.632;2023-09-19T01:32:16;2.97;;;1.13;;
23745;SDS011;12053;48.878;9.632;2023-09-19T01:34:48;4.20;;;1.00;;
23745;SDS011;12053;48.878;9.632;2023-09-19T01:37:16;1.58;;;1.17;;
23745;SDS011;12053;48.878;9.632;2023-09-19T01:39:47;1.90;;;1.08;;
23745;SDS011;12053;48.878;9.632;2023-09-19T01:42:18;1.20;;;1.10;;
23745;SDS011;12053;48.878;9.632;2023-09-19T01:44:57;1.20;;;1.08;;
23745;SDS011;12053;48.878;9.632;2023-09-19T01:50:09;3.50;;;0.85;;
23745;SDS011;12053;48.878;9.632;2023-09-19T01:52:39;2.15;;;1.02;;
23745;SDS011;12053;48.878;9.632;2023-09-19T01:55:09;1.50;;;1.10;;
23745;SDS011;12053;48.878;9.632;2023-09-19T01:57:42;1.95;;;0.95;;
23745;SDS011;12053;48.878;9.632;2023-09-19T02:00:14;1.23;;;0.88;;
23745;SDS011;12053;48.878;9.632;2023-09-19T02:02:43;1.25;;;1.15;;
23745;SDS011;12053;48.878;9.632;2023-09-19T02:05:12;2.55;;;1.05;;
23745;SDS011;12053;48.878;9.632;2023-09-19T02:07:39;1.20;;;0.80;;
23745;SDS011;12053;48.878;9.632;2023-09-19T02:10:06;1.50;;;1.00;;
23745;SDS011;12053;48.878;9.632;2023-09-19T02:12:36;1.13;;;0.88;;
23745;SDS011;12053;48.878;9.632;2023-09-19T02:15:04;2.65;;;1.10;;
23745;SDS011;12053;48.878;9.632;2023-09-19T02:17:33;3.50;;;1.00;;
23745;SDS011;12053;48.878;9.632;2023-09-19T02:20:01;2.22;;;1.00;;
23745;SDS011;12053;48.878;9.632;2023-09-19T02:22:28;1.88;;;0.75;;
23745;SDS011;12053;48.878;9.632;2023-09-19T02:24:55;1.58;;;0.95;;
23745;SDS011;12053;48.878;9.632;2023-09-19T02:27:26;1.80;;;1.10;;
23745;SDS011;12053;48.878;9.632;2023-09-19T02:29:53;1.90;;;1.10;;
23745;SDS011;12053;48.878;9.632;2023-09-19T02:32:22;3.13;;;0.82;;
23745;SDS011;12053;48.878;9.632;2023-09-19T02:34:50;1.42;;;1.02;;
23745;SDS011;12053;48.878;9.632;2023-09-19T02:37:18;3.10;;;0.90;;
23745;SDS011;12053;48.878;9.632;2023-09-19T02:39:45;1.42;;;1.02;;
23745;SDS011;12053;48.878;9.632;2023-09-19T02:42:12;1.98;;;1.00;;
23745;SDS011;12053;48.878;9.632;2023-09-19T02:44:40;2.42;;;1.00;;
23745;SDS011;12053;48.878;9.632;2023-09-19T02:47:07;1.17;;;0.90;;
23745;SDS011;12053;48.878;9.632;2023-09-19T02:49:34;2.40;;;1.00;;
23745;SDS011;12053;48.878;9.632;2023-09-19T02:52:02;1.98;;;1.00;;
23745;SDS011;12053;48.878;9.632;2023-09-19T02:54:30;1.98;;;1.02;;
23745;SDS011;12053;48.878;9.632;2023-09-19T02:56:57;1.80;;;1.17;;
23745;SDS011;12053;48.878;9.632;2023-09-19T02:59:25;4.15;;;1.10;;
23745;SDS011;12053;48.878;9.632;2023-09-19T03:01:52;2.08;;;1.10;;
23745;SDS011;12053;48.878;9.632;2023-09-19T03:04:21;2.35;;;1.23;;
23745;SDS011;12053;48.878;9.632;2023-09-19T03:06:48;4.78;;;1.67;;
23745;SDS011;12053;48.878;9.632;2023-09-19T03:09:17;2.33;;;1.20;;
23745;SDS011;12053;48.878;9.632;2023-09-19T03:11:45;1.88;;;1.10;;
23745;SDS011;12053;48.878;9.632;2023-09-19T03:14:13;2.83;;;1.08;;
23745;SDS011;12053;48.878;9.632;2023-09-19T03:16:42;2.00;;;1.17;;
23745;SDS011;12053;48.878;9.632;2023-09-19T03:19:11;2.17;;;1.23;;
23745;SDS011;12053;48.878;9.632;2023-09-19T03:21:38;1.40;;;0.90;;
23745;SDS011;12053;48.878;9.632;2023-09-19T03:24:05;1.65;;;1.20;;
23745;SDS011;12053;48.878;9.632;2023-09-19T03:26:33;1.75;;;1.00;;
23745;SDS011;12053;48.878;9.632;2023-09-19T03:29:03;2.03;;;1.00;;
23745;SDS011;12053;48.878;9.632;2023-09-19T03:31:32;1.48;;;1.13;;
23745;SDS011;12053;48.878;9.632;2023-09-19T03:34:03;1.88;;;1.30;;
23745;SDS011;12053;48.878;9.632;2023-09-19T03:36:30;1.35;;;1.02;;
23745;SDS011;12053;48.878;9.632;2023-09-19T03:38:57;2.00;;;0.90;;
23745;SDS011;12053;48.878;9.632;2023-09-19T03:41:24;1.40;;;1.20;;
23745;SDS011;12053;48.878;9.632;2023-09-19T03:43:52;2.15;;;1.30;;
23745;SDS011;12053;48.878;9.632;2023-09-19T03:46:19;4.63;;;1.42;;
23745;SDS011;12053;48.878;9.632;2023-09-19T03:48:46;2.70;;;1.48;;
23745;SDS011;12053;48.878;9.632;2023-09-19T03:51:13;3.83;;;1.40;;
23745;SDS011;12053;48.878;9.632;2023-09-19T03:53:40;1.88;;;1.25;;
23745;SDS011;12053;48.878;9.632;2023-09-19T03:56:08;1.27;;;1.08;;
23745;SDS011;12053;48.878;9.632;2023-09-19T03:58:35;2.30;;;1.30;;
23745;SDS011;12053;48.878;9.632;2023-09-19T04:01:05;1.65;;;1.20;;
23745;SDS011;12053;48.878;9.632;2023-09-19T04:03:33;2.22;;;1.05;;
23745;SDS011;12053;48.878;9.632;2023-09-19T04:06:12;1.85;;;1.00;;
23745;SDS011;12053;48.878;9.632;2023-09-19T04:08:39;1.08;;;0.90;;
23745;SDS011;12053;48.878;9.632;2023-09-19T04:11:06;1.13;;;0.98;;
23745;SDS011;12053;48.878;9.632;2023-09-19T04:13:34;3.20;;;0.90;;
23745;SDS011;12053;48.878;9.632;2023-09-19T04:16:03;3.28;;;1.30;;
23745;SDS011;12053;48.878;9.632;2023-09-19T04:18:30;1.13;;;0.90;;
23745;SDS011;12053;48.878;9.632;2023-09-19T04:20:59;3.42;;;1.10;;
23745;SDS011;12053;48.878;9.632;2023-09-19T04:23:30;2.33;;;1.38;;
23745;SDS011;12053;48.878;9.632;2023-09-19T04:25:57;1.42;;;1.10;;
23745;SDS011;12053;48.878;9.632;2023-09-19T04:28:25;2.80;;;1.15;;
23745;SDS011;12053;48.878;9.632;2023-09-19T04:30:54;1.77;;;1.20;;
23745;SDS011;12053;48.878;9.632;2023-09-19T04:33:21;5.72;;;1.23;;
23745;SDS011;12053;48.878;9.632;2023-09-19T04:35:49;2.13;;;1.13;;
23745;SDS011;12053;48.878;9.632;2023-09-19T04:38:20;1.70;;;1.15;;
23745;SDS011;12053;48.878;9.632;2023-09-19T04:40:48;2.78;;;1.38;;
23745;SDS011;12053;48.878;9.632;2023-09-19T04:43:15;2.15;;;1.25;;
23745;SDS011;12053;48.878;9.632;2023-09-19T04:45:43;3.88;;;1.33;;
23745;SDS011;12053;48.878;9.632;2023-09-19T04:48:10;2.28;;;1.30;;
23745;SDS011;12053;48.878;9.632;2023-09-19T04:50:38;1.52;;;1.17;;
23745;SDS011;12053;48.878;9.632;2023-09-19T04:53:05;2.78;;;1.55;;
23745;SDS011;12053;48.878;9.632;2023-09-19T04:55:33;1.67;;;1.58;;
23745;SDS011;12053;48.878;9.632;2023-09-19T04:58:00;2.17;;;1.38;;
23745;SDS011;12053;48.878;9.632;2023-09-19T05:00:28;3.10;;;1.42;;
23745;SDS011;12053;48.878;9.632;2023-09-19T05:02:57;3.53;;;1.48;;
23745;SDS011;12053;48.878;9.632;2023-09-19T05:05:24;1.77;;;1.42;;
23745;SDS011;12053;48.878;9.632;2023-09-19T05:07:52;3.20;;;1.30;;
23745;SDS011;12053;48.878;9.632;2023-09-19T05:10:20;3.35;;;1.52;;
23745;SDS011;12053;48.878;9.632;2023-09-19T05:12:48;4.68;;;1.40;;
23745;SDS011;12053;48.878;9.632;2023-09-19T05:15:18;5.18;;;1.77;;
23745;SDS011;12053;48.878;9.632;2023-09-19T05:17:48;2.85;;;1.70;;
23745;SDS011;12053;48.878;9.632;2023-09-19T05:20:20;2.45;;;1.40;;
23745;SDS011;12053;48.878;9.632;2023-09-19T05:22:59;2.25;;;1.80;;
23745;SDS011;12053;48.878;9.632;2023-09-19T05:25:28;4.00;;;1.50;;
23745;SDS011;12053;48.878;9.632;2023-09-19T05:27:56;2.63;;;1.80;;
23745;SDS011;12053;48.878;9.632;2023-09-19T05:30:25;1.98;;;1.45;;
23745;SDS011;12053;48.878;9.632;2023-09-19T05:32:53;2.28;;;1.48;;
23745;SDS011;12053;48.878;9.632;2023-09-19T05:35:21;2.20;;;1.50;;
23745;SDS011;12053;48.878;9.632;2023-09-19T05:37:52;1.95;;;1.80;;
23745;SDS011;12053;48.878;9.632;2023-09-19T05:40:21;3.63;;;1.77;;
23745;SDS011;12053;48.878;9.632;2023-09-19T05:42:48;5.32;;;1.67;;
23745;SDS011;12053;48.878;9.632;2023-09-19T05:45:16;6.25;;;2.30;;
23745;SDS011;12053;48.878;9.632;2023-09-19T05:47:49;2.83;;;1.60;;
23745;SDS011;12053;48.878;9.632;2023-09-19T05:50:17;2.35;;;1.58;;
23745;SDS011;12053;48.878;9.632;2023-09-19T05:52:51;5.63;;;1.70;;
23745;SDS011;12053;48.878;9.632;2023-09-19T05:55:19;4.05;;;1.65;;
23745;SDS011;12053;48.878;9.632;2023-09-19T05:57:50;3.78;;;1.83;;
23745;SDS011;12053;48.878;9.632;2023-09-19T06:00:21;2.88;;;1.83;;
23745;SDS011;12053;48.878;9.632;2023-09-19T06:02:50;2.38;;;1.90;;
23745;SDS011;12053;48.878;9.632;2023-09-19T06:05:18;4.65;;;1.73;;
23745;SDS011;12053;48.878;9.632;2023-09-19T06:07:46;2.50;;;1.92;;
23745;SDS011;12053;48.878;9.632;2023-09-19T06:10:13;2.30;;;1.98;;
23745;SDS011;12053;48.878;9.632;2023-09-19T06:12:41;2.05;;;1.90;;
23745;SDS011;12053;48.878;9.632;2023-09-19T06:15:13;6.70;;;2.55;;
23745;SDS011;12053;48.878;9.632;2023-09-19T06:17:49;4.35;;;2.00;;
23745;SDS011;12053;48.878;9.632;2023-09-19T06:20:17;3.08;;;2.05;;
23745;SDS011;12053;48.878;9.632;2023-09-19T06:22:46;2.25;;;1.38;;
23745;SDS011;12053;48.878;9.632;2023-09-19T06:25:14;1.25;;;1.15;;
23745;SDS011;12053;48.878;9.632;2023-09-19T06:27:49;1.30;;;1.20;;
23745;SDS011;12053;48.878;9.632;2023-09-19T06:30:18;2.88;;;1.70;;
23745;SDS011;12053;48.878;9.632;2023-09-19T06:32:46;2.45;;;1.58;;
23745;SDS011;12053;48.878;9.632;2023-09-19T06:35:14;3.50;;;2.05;;
23745;SDS011;12053;48.878;9.632;2023-09-19T06:37:42;3.97;;;2.20;;
23745;SDS011;12053;48.878;9.632;2023-09-19T06:42:41;3.28;;;2.30;;
23745;SDS011;12053;48.878;9.632;2023-09-19T06:45:08;4.97;;;1.80;;
23745;SDS011;12053;48.878;9.632;2023-09-19T06:47:37;3.40;;;1.60;;
23745;SDS011;12053;48.878;9.632;2023-09-19T06:50:05;2.33;;;1.73;;
23745;SDS011;12053;48.878;9.632;2023-09-19T06:52:39;2.92;;;2.13;;
23745;SDS011;12053;48.878;9.632;2023-09-19T06:55:07;2.75;;;2.03;;
23745;SDS011;12053;48.878;9.632;2023-09-19T06:57:36;6.25;;;2.10;;
23745;SDS011;12053;48.878;9.632;2023-09-19T07:00:03;2.65;;;2.00;;
23745;SDS011;12053;48.878;9.632;2023-09-19T07:02:35;6.70;;;2.00;;
23745;SDS011;12053;48.878;9.632;2023-09-19T07:05:03;4.75;;;2.17;;
23745;SDS011;12053;48.878;9.632;2023-09-19T07:07:31;8.98;;;2.63;;
23745;SDS011;12053;48.878;9.632;2023-09-19T07:10:02;4.13;;;3.00;;
23745;SDS011;12053;48.878;9.632;2023-09-19T07:12:31;4.68;;;2.67;;
23745;SDS011;12053;48.878;9.632;2023-09-19T07:14:59;3.97;;;2.33;;
23745;SDS011;12053;48.878;9.632;2023-09-19T07:17:26;2.80;;;2.10;;
23745;SDS011;12053;48.878;9.632;2023-09-19T07:19:55;4.13;;;2.30;;
23745;SDS011;12053;48.878;9.632;2023-09-19T07:22:25;3.22;;;2.20;;
23745;SDS011;12053;48.878;9.632;2023-09-19T07:24:53;5.68;;;2.10;;
23745;SDS011;12053;48.878;9.632;2023-09-19T07:27:21;4.50;;;2.65;;
23745;SDS011;12053;48.878;9.632;2023-09-19T07:29:48;4.60;;;2.05;;
23745;SDS011;12053;48.878;9.632;2023-09-19T07:32:17;4.13;;;2.70;;
23745;SDS011;12053;48.878;9.632;2023-09-19T07:34:44;4.70;;;2.00;;
23745;SDS011;12053;48.878;9.632;2023-09-19T07:37:12;4.78;;;2.08;;
23745;SDS011;12053;48.878;9.632;2023-09-19T07:39:41;3.08;;;2.10;;
23745;SDS011;12053;48.878;9.632;2023-09-19T07:42:08;2.72;;;2.05;;
23745;SDS011;12053;48.878;9.632;2023-09-19T07:44:37;2.50;;;1.75;;
23745;SDS011;12053;48.878;9.632;2023-09-19T07:47:04;3.88;;;1.95;;
23745;SDS011;12053;48.878;9.632;2023-09-19T07:49:32;5.30;;;2.35;;
23745;SDS011;12053;48.878;9.632;2023-09-19T07:51:59;5.50;;;2.20;;
23745;SDS011;12053;48.878;9.632;2023-09-19T07:54:26;6.07;;;2.05;;
23745;SDS011;12053;48.878;9.632;2023-09-19T07:56:56;4.70;;;2.25;;
23745;SDS011;12053;48.878;9.632;2023-09-19T07:59:24;4.50;;;2.50;;
23745;SDS011;12053;48.878;9.632;2023-09-19T08:01:51;6.07;;;2.55;;
23745;SDS011;12053;48.878;9.632;2023-09-19T08:04:18;4.57;;;2.67;;
23745;SDS011;12053;48.878;9.632;2023-09-19T08:06:45;4.95;;;2.30;;
23745;SDS011;12053;48.878;9.632;2023-09-19T08:09:13;13.43;;;2.78;;
23745;SDS011;12053;48.878;9.632;2023-09-19T08:11:49;8.27;;;2.75;;
23745;SDS011;12053;48.878;9.632;2023-09-19T08:14:16;5.03;;;2.58;;
23745;SDS011;12053;48.878;9.632;2023-09-19T08:16:44;5.07;;;2.60;;
23745;SDS011;12053;48.878;9.632;2023-09-19T08:19:11;4.47;;;2.25;;
23745;SDS011;12053;48.878;9.632;2023-09-19T08:21:38;4.25;;;2.38;;
23745;SDS011;12053;48.878;9.632;2023-09-19T08:24:05;6.60;;;2.42;;
23745;SDS011;12053;48.878;9.632;2023-09-19T08:26:34;4.22;;;2.47;;
23745;SDS011;12053;48.878;9.632;2023-09-19T08:29:03;5.88;;;2.72;;
23745;SDS011;12053;48.878;9.632;2023-09-19T08:31:33;6.40;;;2.42;;
23745;SDS011;12053;48.878;9.632;2023-09-19T08:34:01;5.70;;;3.13;;
23745;SDS011;12053;48.878;9.632;2023-09-19T08:36:28;4.10;;;2.72;;
23745;SDS011;12053;48.878;9.632;2023-09-19T08:38:57;4.47;;;2.60;;
23745;SDS011;12053;48.878;9.632;2023-09-19T08:41:24;7.70;;;2.53;;
23745;SDS011;12053;48.878;9.632;2023-09-19T08:43:51;3.97;;;2.60;;
23745;SDS011;12053;48.878;9.632;2023-09-19T08:46:19;3.97;;;2.42;;
23745;SDS011;12053;48.878;9.632;2023-09-19T08:51:30;6.35;;;2.10;;
23745;SDS011;12053;48.878;9.632;2023-09-19T08:54:03;2.08;;;1.88;;
23745;SDS011;12053;48.878;9.632;2023-09-19T08:56:32;4.10;;;1.63;;
23745;SDS011;12053;48.878;9.632;2023-09-19T08:59:02;5.63;;;1.83;;
23745;SDS011;12053;48.878;9.632;2023-09-19T09:01:30;5.07;;;1.70;;
23745;SDS011;12053;48.878;9.632;2023-09-19T09:03:59;6.65;;;1.98;;
23745;SDS011;12053;48.878;9.632;2023-09-19T09:06:26;1.65;;;1.30;;
23745;SDS011;12053;48.878;9.632;2023-09-19T09:08:54;2.80;;;1.50;;
23745;SDS011;12053;48.878;9.632;2023-09-19T09:11:22;4.53;;;1.98;;
23745;SDS011;12053;48.878;9.632;2023-09-19T09:13:51;3.42;;;1.60;;
23745;SDS011;12053;48.878;9.632;2023-09-19T09:16:18;5.28;;;1.77;;
23745;SDS011;12053;48.878;9.632;2023-09-19T09:18:46;4.70;;;1.45;;
23745;SDS011;12053;48.878;9.632;2023-09-19T09:21:20;5.75;;;1.75;;
23745;SDS011;12053;48.878;9.632;2023-09-19T09:23:48;3.05;;;1.40;;
23745;SDS011;12053;48.878;9.632;2023-09-19T09:29:05;1.73;;;1.42;;
23745;SDS011;12053;48.878;9.632;2023-09-19T09:31:33;2.38;;;1.40;;
23745;SDS011;12053;48.878;9.632;2023-09-19T09:34:00;3.10;;;1.52;;
23745;SDS011;12053;48.878;9.632;2023-09-19T09:36:37;3.78;;;1.45;;
23745;SDS011;12053;48.878;9.632;2023-09-19T09:39:05;1.88;;;1.42;;
23745;SDS011;12053;48.878;9.632;2023-09-19T09:41:45;2.13;;;1.35;;
23745;SDS011;12053;48.878;9.632;2023-09-19T09:44:16;3.85;;;1.45;;
23745;SDS011;12053;48.878;9.632;2023-09-19T09:46:45;3.92;;;1.50;;
23745;SDS011;12053;48.878;9.632;2023-09-19T09:49:22;2.08;;;1.45;;
23745;SDS011;12053;48.878;9.632;2023-09-19T09:52:01;3.33;;;1.50;;
23745;SDS011;12053;48.878;9.632;2023-09-19T09:54:59;2.28;;;1.50;;
23745;SDS011;12053;48.878;9.632;2023-09-19T09:57:36;3.08;;;1.50;;
23745;SDS011;12053;48.878;9.632;2023-09-19T10:00:07;2.65;;;1.40;;
23745;SDS011;12053;48.878;9.632;2023-09-19T10:02:37;5.07;;;1.52;;
23745;SDS011;12053;48.878;9.632;2023-09-19T10:05:15;3.30;;;1.40;;
23745;SDS011;12053;48.878;9.632;2023-09-19T10:07:55;2.60;;;1.88;;
23745;SDS011;12053;48.878;9.632;2023-09-19T10:10:31;4.53;;;1.33;;
23745;SDS011;12053;48.878;9.632;2023-09-19T10:13:08;3.88;;;1.45;;
23745;SDS011;12053;48.878;9.632;2023-09-19T10:15:44;2.75;;;1.70;;
23745;SDS011;12053;48.878;9.632;2023-09-19T10:18:15;4.60;;;1.30;;
23745;SDS011;12053;48.878;9.632;2023-09-19T10:20:45;2.97;;;1.45;;
23745;SDS011;12053;48.878;9.632;2023-09-19T10:23:12;2.55;;;1.40;;
23745;SDS011;12053;48.878;9.632;2023-09-19T10:25:41;3.85;;;1.25;;
23745;SDS011;12053;48.878;9.632;2023-09-19T10:28:09;1.98;;;1.20;;
23745;SDS011;12053;48.878;9.632;2023-09-19T10:30:44;5.00;;;1.30;;
23745;SDS011;12053;48.878;9.632;2023-09-19T10:33:14;3.50;;;1.20;;
23745;SDS011;12053;48.878;9.632;2023-09-19T10:35:45;1.90;;;1.10;;
23745;SDS011;12053;48.878;9.632;2023-09-19T10:38:14;2.00;;;1.58;;
23745;SDS011;12053;48.878;9.632;2023-09-19T10:40:44;3.65;;;1.48;;
23745;SDS011;12053;48.878;9.632;2023-09-19T10:43:17;4.37;;;1.33;;
23745;SDS011;12053;48.878;9.632;2023-09-19T10:45:45;2.55;;;1.45;;
23745;SDS011;12053;48.878;9.632;2023-09-19T10:48:16;3.03;;;1.55;;
23745;SDS011;12053;48.878;9.632;2023-09-19T10:53:26;1.55;;;1.00;;
23745;SDS011;12053;48.878;9.632;2023-09-19T10:55:57;1.98;;;1.50;;
23745;SDS011;12053;48.878;9.632;2023-09-19T10:58:27;1.70;;;1.60;;
23745;SDS011;12053;48.878;9.632;2023-09-19T11:01:04;2.28;;;1.50;;
23745;SDS011;12053;48.878;9.632;2023-09-19T11:03:33;3.10;;;1.33;;
23745;SDS011;12053;48.878;9.632;2023-09-19T11:06:04;2.40;;;1.23;;
23745;SDS011;12053;48.878;9.632;2023-09-19T11:22:26;4.60;;;1.38;;
23745;SDS011;12053;48.878;9.632;2023-09-19T11:30:42;3.38;;;1.25;;
23745;SDS011;12053;48.878;9.632;2023-09-19T11:33:16;3.30;;;1.10;;
23745;SDS011;12053;48.878;9.632;2023-09-19T11:46:31;2.42;;;1.08;;
23745;SDS011;12053;48.878;9.632;2023-09-19T11:49:06;1.63;;;1.00;;
23745;SDS011;12053;48.878;9.632;2023-09-19T11:51:40;3.15;;;1.30;;
23745;SDS011;12053;48.878;9.632;2023-09-19T11:54:12;1.73;;;1.25;;
23745;SDS011;12053;48.878;9.632;2023-09-19T11:56:52;2.25;;;1.30;;
23745;SDS011;12053;48.878;9.632;2023-09-19T11:59:22;2.08;;;1.10;;
23745;SDS011;12053;48.878;9.632;2023-09-19T12:01:51;1.90;;;1.20;;
23745;SDS011;12053;48.878;9.632;2023-09-19T12:07:10;1.83;;;0.98;;
23745;SDS011;12053;48.878;9.632;2023-09-19T12:09:42;1.95;;;1.05;;
23745;SDS011;12053;48.878;9.632;2023-09-19T12:12:10;2.13;;;0.90;;
23745;SDS011;12053;48.878;9.632;2023-09-19T12:14:47;2.05;;;0.80;;
23745;SDS011;12053;48.878;9.632;2023-09-19T12:17:14;2.03;;;1.08;;
23745;SDS011;12053;48.878;9.632;2023-09-19T12:19:49;1.92;;;0.90;;
23745;SDS011;12053;48.878;9.632;2023-09-19T12:22:17;2.30;;;0.90;;
23745;SDS011;12053;48.878;9.632;2023-09-19T12:24:46;1.90;;;1.20;;
23745;SDS011;12053;48.878;9.632;2023-09-19T12:27:14;2.20;;;1.13;;
23745;SDS011;12053;48.878;9.632;2023-09-19T12:29:46;2.05;;;0.95;;
23745;SDS011;12053;48.878;9.632;2023-09-19T12:32:15;1.02;;;0.88;;
23745;SDS011;12053;48.878;9.632;2023-09-19T12:34:51;1.25;;;1.00;;
23745;SDS011;12053;48.878;9.632;2023-09-19T12:37:20;3.05;;;1.13;;
23745;SDS011;12053;48.878;9.632;2023-09-19T12:39:49;5.40;;;1.10;;
23745;SDS011;12053;48.878;9.632;2023-09-19T12:42:17;3.13;;;1.10;;
23745;SDS011;12053;48.878;9.632;2023-09-19T12:44:46;1.83;;;1.00;;
23745;SDS011;12053;48.878;9.632;2023-09-19T12:47:17;1.58;;;0.80;;
23745;SDS011;12053;48.878;9.632;2023-09-19T12:52:41;2.10;;;1.00;;
23745;SDS011;12053;48.878;9.632;2023-09-19T12:55:19;1.33;;;1.00;;
23745;SDS011;12053;48.878;9.632;2023-09-19T12:57:56;3.25;;;1.10;;
23745;SDS011;12053;48.878;9.632;2023-09-19T13:00:40;3.38;;;1.00;;
23745;SDS011;12053;48.878;9.632;2023-09-19T13:03:11;1.30;;;0.80;;
23745;SDS011;12053;48.878;9.632;2023-09-19T13:05:49;1.65;;;1.20;;
23745;SDS011;12053;48.878;9.632;2023-09-19T13:08:17;1.63;;;0.93;;
23745;SDS011;12053;48.878;9.632;2023-09-19T13:13:33;1.20;;;1.10;;
23745;SDS011;12053;48.878;9.632;2023-09-19T13:16:03;2.88;;;1.20;;
23745;SDS011;12053;48.878;9.632;2023-09-19T13:18:44;1.20;;;1.10;;
23745;SDS011;12053;48.878;9.632;2023-09-19T13:21:12;1.45;;;1.08;;
23745;SDS011;12053;48.878;9.632;2023-09-19T13:23:49;1.33;;;1.10;;
23745;SDS011;12053;48.878;9.632;2023-09-19T13:26:17;1.67;;;1.15;;
23745;SDS011;12053;48.878;9.632;2023-09-19T13:28:45;1.30;;;0.75;;
23745;SDS011;12053;48.878;9.632;2023-09-19T13:31:15;1.88;;;1.00;;
23745;SDS011;12053;48.878;9.632;2023-09-19T13:33:46;2.10;;;1.00;;
23745;SDS011;12053;48.878;9.632;2023-09-19T13:36:14;1.45;;;1.08;;
23745;SDS011;12053;48.878;9.632;2023-09-19T13:38:41;2.08;;;1.00;;
23745;SDS011;12053;48.878;9.632;2023-09-19T13:41:15;2.17;;;1.17;;
23745;SDS011;12053;48.878;9.632;2023-09-19T13:43:43;4.00;;;1.23;;
23745;SDS011;12053;48.878;9.632;2023-09-19T13:46:14;2.65;;;1.20;;
23745;SDS011;12053;48.878;9.632;2023-09-19T13:48:44;3.72;;;0.98;;
23745;SDS011;12053;48.878;9.632;2023-09-19T13:51:11;2.10;;;1.10;;
23745;SDS011;12053;48.878;9.632;2023-09-19T13:53:38;2.13;;;1.10;;
23745;SDS011;12053;48.878;9.632;2023-09-19T13:56:05;2.78;;;1.40;;
23745;SDS011;12053;48.878;9.632;2023-09-19T13:58:33;2.78;;;1.17;;
23745;SDS011;12053;48.878;9.632;2023-09-19T14:01:00;0.90;;;0.90;;
23745;SDS011;12053;48.878;9.632;2023-09-19T14:03:28;1.92;;;0.95;;
23745;SDS011;12053;48.878;9.632;2023-09-19T14:05:56;1.38;;;1.08;;
23745;SDS011;12053;48.878;9.632;2023-09-19T14:08:23;3.10;;;1.25;;
23745;SDS011;12053;48.878;9.632;2023-09-19T14:10:51;2.50;;;1.10;;
23745;SDS011;12053;48.878;9.632;2023-09-19T14:13:19;1.85;;;1.23;;
23745;SDS011;12053;48.878;9.632;2023-09-19T14:15:46;3.50;;;1.23;;
23745;SDS011;12053;48.878;9.632;2023-09-19T14:18:14;1.90;;;1.08;;
23745;SDS011;12053;48.878;9.632;2023-09-19T14:20:41;1.10;;;0.90;;
23745;SDS011;12053;48.878;9.632;2023-09-19T14:23:08;4.22;;;1.25;;
23745;SDS011;12053;48.878;9.632;2023-09-19T14:25:36;1.75;;;1.10;;
23745;SDS011;12053;48.878;9.632;2023-09-19T14:28:05;1.17;;;1.08;;
23745;SDS011;12053;48.878;9.632;2023-09-19T14:30:34;2.03;;;0.93;;
23745;SDS011;12053;48.878;9.632;2023-09-19T14:33:04;1.48;;;1.15;;
23745;SDS011;12053;48.878;9.632;2023-09-19T14:35:32;1.52;;;1.13;;
23745;SDS011;12053;48.878;9.632;2023-09-19T14:37:59;3.35;;;1.20;;
23745;SDS011;12053;48.878;9.632;2023-09-19T14:40:27;2.58;;;1.17;;
23745;SDS011;12053;48.878;9.632;2023-09-19T14:42:54;3.35;;;1.10;;
23745;SDS011;12053;48.878;9.632;2023-09-19T14:45:21;2.38;;;1.10;;
23745;SDS011;12053;48.878;9.632;2023-09-19T14:47:50;2.05;;;1.00;;
23745;SDS011;12053;48.878;9.632;2023-09-19T14:50:21;1.85;;;1.17;;
23745;SDS011;12053;48.878;9.632;2023-09-19T14:52:49;1.33;;;1.20;;
23745;SDS011;12053;48.878;9.632;2023-09-19T14:55:18;1.40;;;1.30;;
23745;SDS011;12053;48.878;9.632;2023-09-19T14:57:48;2.38;;;1.30;;
23745;SDS011;12053;48.878;9.632;2023-09-19T15:00:17;1.08;;;0.98;;
23745;SDS011;12053;48.878;9.632;2023-09-19T15:02:46;1.20;;;1.10;;
23745;SDS011;12053;48.878;9.632;2023-09-19T15:05:16;1.58;;;1.00;;
23745;SDS011;12053;48.878;9.632;2023-09-19T15:07:46;2.30;;;1.38;;
23745;SDS011;12053;48.878;9.632;2023-09-19T15:10:13;2.78;;;1.30;;
23745;SDS011;12053;48.878;9.632;2023-09-19T15:12:40;3.00;;;1.30;;
23745;SDS011;12053;48.878;9.632;2023-09-19T15:15:07;2.70;;;1.35;;
23745;SDS011;12053;48.878;9.632;2023-09-19T15:17:35;1.92;;;1.10;;
23745;SDS011;12053;48.878;9.632;2023-09-19T15:20:03;1.52;;;1.10;;
23745;SDS011;12053;48.878;9.632;2023-09-19T15:22:33;3.25;;;1.30;;
23745;SDS011;12053;48.878;9.632;2023-09-19T15:25:01;2.28;;;1.20;;
23745;SDS011;12053;48.878;9.632;2023-09-19T15:27:28;2.42;;;1.08;;
23745;SDS011;12053;48.878;9.632;2023-09-19T15:29:57;2.15;;;1.10;;
23745;SDS011;12053;48.878;9.632;2023-09-19T15:32:28;1.63;;;1.13;;
23745;SDS011;12053;48.878;9.632;2023-09-19T15:34:56;1.20;;;1.00;;
23745;SDS011;12053;48.878;9.632;2023-09-19T15:37:23;2.60;;;1.48;;
23745;SDS011;12053;48.878;9.632;2023-09-19T15:39:52;1.05;;;0.95;;
23745;SDS011;12053;48.878;9.632;2023-09-19T15:42:19;1.67;;;1.10;;
23745;SDS011;12053;48.878;9.632;2023-09-19T15:44:46;3.95;;;1.30;;
23745;SDS011;12053;48.878;9.632;2023-09-19T15:47:15;3.08;;;1.25;;
23745;SDS011;12053;48.878;9.632;2023-09-19T15:49:43;1.65;;;1.25;;
23745;SDS011;12053;48.878;9.632;2023-09-19T15:52:11;2.75;;;1.15;;
23745;SDS011;12053;48.878;9.632;2023-09-19T15:54:39;2.63;;;1.33;;
23745;SDS011;12053;48.878;9.632;2023-09-19T15:57:10;5.57;;;1.38;;
23745;SDS011;12053;48.878;9.632;2023-09-19T15:59:39;2.88;;;1.27;;
23745;SDS011;12053;48.878;9.632;2023-09-19T16:02:06;1.38;;;1.17;;
23745;SDS011;12053;48.878;9.632;2023-09-19T16:04:33;1.58;;;1.00;;